Athens, Georgia
Current Conditions -  °F | °C
As of 12:51 AM on Saturday 20 Dec 2014 (Local Time) from KAHN Reporting Station
Light Rain Light Rain  
Wind Chill:   Ceiling: 8500
Heat Index:   Visibility: 10mi
Dew Point:   Wind: 0mph
Humidity: 77%   Direction: NA
Pressure: 30.15"   Gusts: NA
Location:  33.96°N, 83.37°W
Report Text: KAHN 200551Z AUTO 00000KT 10SM -RA SCT070 OVC085 08/04 A3015 RMK AO2 RAB14E23B45 SLP210 P0000 60000 T00830044 10100 20083 50001
Loading
Personal Weather Stations






























Interactive Weather Map New forecast layout! Learn more

10-Day Weather Forecast

Advertisements
Track Severe Weather on mobile